createdAt,value
2022-08-11T00:00:40.581Z,6.20
2022-08-11T00:02:48.845Z,5.95
2022-08-11T00:04:50.843Z,5.93
2022-08-11T00:06:53.383Z,5.85
2022-08-11T00:08:55.788Z,6.20
2022-08-11T00:10:59.480Z,6.18
2022-08-11T00:13:04.663Z,5.68
2022-08-11T00:15:06.786Z,5.80
2022-08-11T00:17:09.389Z,6.10
2022-08-11T00:19:11.437Z,5.75
2022-08-11T00:21:13.327Z,5.82
2022-08-11T00:23:18.457Z,6.37
2022-08-11T00:25:21.638Z,6.20
2022-08-11T00:27:36.219Z,6.10
2022-08-11T00:29:38.748Z,6.18
2022-08-11T00:31:55.097Z,6.38
2022-08-11T00:33:57.801Z,6.03
2022-08-11T00:38:02.852Z,5.60
2022-08-11T00:42:24.600Z,5.40
2022-08-11T00:44:32.054Z,5.70
2022-08-11T00:46:33.600Z,6.07
2022-08-11T00:48:50.461Z,5.78
2022-08-11T00:51:16.905Z,5.75
2022-08-11T00:53:26.045Z,5.70
2022-08-11T00:55:47.194Z,6.07
2022-08-11T00:58:06.346Z,5.70
2022-08-11T01:00:07.887Z,6.03
2022-08-11T01:02:12.481Z,6.15
2022-08-11T01:04:14.120Z,5.82
2022-08-11T01:06:18.798Z,6.25
2022-08-11T01:08:30.120Z,5.72
2022-08-11T01:10:34.636Z,5.80
2022-08-11T01:12:54.748Z,6.00
2022-08-11T01:15:15.347Z,5.97
2022-08-11T01:17:35.746Z,5.55
2022-08-11T01:20:45.904Z,5.68
2022-08-11T01:22:24.778Z,6.25
2022-08-11T01:24:36.560Z,5.93
2022-08-11T01:26:43.979Z,5.70
2022-08-11T01:28:45.747Z,5.38
2022-08-11T01:31:05.908Z,5.63
2022-08-11T01:33:10.267Z,5.70
2022-08-11T01:35:12.015Z,5.38
2022-08-11T01:37:32.231Z,6.35
2022-08-11T01:39:42.985Z,6.13
2022-08-11T01:42:22.232Z,6.50
2022-08-11T01:44:42.687Z,7.15
2022-08-11T01:46:51.815Z,6.07
2022-08-11T01:48:53.566Z,6.30
2022-08-11T01:51:03.971Z,7.03
2022-08-11T01:53:28.251Z,6.20
2022-08-11T01:55:48.640Z,6.35
2022-08-11T01:57:50.175Z,6.38
2022-08-11T01:59:54.266Z,5.82
2022-08-11T02:02:05.212Z,5.68
2022-08-11T02:04:09.636Z,6.40
2022-08-11T02:06:36.020Z,6.55
2022-08-11T02:08:41.862Z,6.53
2022-08-11T02:11:23.849Z,7.03
2022-08-11T02:13:36.582Z,6.25
2022-08-11T02:15:47.699Z,6.25
2022-08-11T02:18:08.150Z,5.95
2022-08-11T02:21:03.732Z,6.05
2022-08-11T02:24:05.404Z,5.93
2022-08-11T02:26:07.676Z,6.43
2022-08-11T02:28:12.531Z,6.55
2022-08-11T02:30:20.953Z,6.05
2022-08-11T02:32:53.715Z,6.75
2022-08-11T02:35:03.628Z,6.33
2022-08-11T02:37:16.048Z,5.70
2022-08-11T02:39:28.849Z,6.10
2022-08-11T02:41:58.502Z,6.10
2022-08-11T02:44:03.244Z,5.82
2022-08-11T02:46:28.052Z,6.30
2022-08-11T02:49:09.078Z,5.63
2022-08-11T02:51:21.908Z,5.88
2022-08-11T02:53:32.150Z,5.68
2022-08-11T02:55:56.251Z,6.22
2022-08-11T02:58:03.521Z,6.20
2022-08-11T03:00:07.464Z,6.13
2022-08-11T03:02:30.414Z,6.28
2022-08-11T03:04:44.950Z,6.17
2022-08-11T03:06:50.042Z,7.07
2022-08-11T03:08:54.618Z,6.30
2022-08-11T03:11:30.251Z,6.75
2022-08-11T03:13:52.659Z,6.40
2022-08-11T03:16:15.887Z,6.07
2022-08-11T03:18:28.172Z,6.22
2022-08-11T03:20:33.447Z,6.30
2022-08-11T03:22:46.207Z,6.03
2022-08-11T03:25:00.781Z,6.47
2022-08-11T03:27:02.337Z,5.93
2022-08-11T03:29:07.092Z,6.25
2022-08-11T03:31:14.716Z,5.80
2022-08-11T03:33:45.583Z,5.88
2022-08-11T03:35:55.115Z,6.07
2022-08-11T03:38:00.450Z,7.22
2022-08-11T03:40:11.063Z,5.78
2022-08-11T03:42:25.279Z,6.07
2022-08-11T03:44:34.683Z,6.13
2022-08-11T03:46:45.288Z,6.05
2022-08-11T03:49:09.712Z,6.47
2022-08-11T03:51:45.007Z,6.20
2022-08-11T03:53:57.464Z,5.95
2022-08-11T03:56:01.791Z,6.53
2022-08-11T03:58:21.858Z,5.80
2022-08-11T04:00:39.159Z,6.13
2022-08-11T04:02:53.003Z,6.07
2022-08-11T04:05:07.207Z,6.00
2022-08-11T04:07:18.216Z,5.65
2022-08-11T04:09:19.804Z,6.07
2022-08-11T04:11:40.154Z,5.72
2022-08-11T04:14:20.749Z,5.72
2022-08-11T04:16:28.393Z,5.93
2022-08-11T04:18:30.001Z,6.32
2022-08-11T04:20:49.902Z,6.05
2022-08-11T04:22:55.235Z,6.25
2022-08-11T04:25:24.595Z,5.90
2022-08-11T04:27:44.798Z,6.30
2022-08-11T04:30:09.113Z,6.00
2022-08-11T04:32:32.074Z,5.75
2022-08-11T04:34:41.406Z,6.20
2022-08-11T04:37:20.503Z,6.45
2022-08-11T04:39:37.226Z,6.43
2022-08-11T04:42:15.187Z,6.05
2022-08-11T04:44:35.448Z,5.70
2022-08-11T04:46:55.699Z,6.45
2022-08-11T04:49:36.991Z,5.95
2022-08-11T04:51:57.155Z,5.78
2022-08-11T04:54:26.388Z,6.05
2022-08-11T04:56:50.750Z,6.30
2022-08-11T04:59:30.039Z,5.75
2022-08-11T05:01:43.917Z,5.78
2022-08-11T05:03:45.694Z,5.97
2022-08-11T05:05:56.348Z,5.15
2022-08-11T05:08:01.546Z,5.10
2022-08-11T05:10:03.495Z,5.20
2022-08-11T05:12:14.170Z,5.10
2022-08-11T05:14:43.827Z,4.88
2022-08-11T05:17:04.298Z,5.05
2022-08-11T05:19:24.341Z,5.28
2022-08-11T05:21:45.579Z,5.45
2022-08-11T05:24:07.481Z,5.25
2022-08-11T05:26:47.305Z,4.35
2022-08-11T05:29:19.882Z,4.75
2022-08-11T05:31:45.326Z,4.82
2022-08-11T05:34:07.886Z,4.88
2022-08-11T05:36:18.947Z,4.30
2022-08-11T05:38:41.306Z,4.70
2022-08-11T05:41:08.628Z,4.57
2022-08-11T05:43:31.341Z,8.90
2022-08-11T05:45:58.271Z,6.40
2022-08-11T05:48:25.450Z,4.82
2022-08-11T05:50:46.130Z,4.50
2022-08-11T05:53:09.218Z,4.53
2022-08-11T05:55:32.825Z,4.70
2022-08-11T05:57:48.807Z,3.97
2022-08-11T05:59:59.224Z,3.95
2022-08-11T06:02:01.919Z,3.83
2022-08-11T06:04:15.724Z,3.78
2022-08-11T06:06:17.407Z,3.70
2022-08-11T06:08:27.369Z,3.78
2022-08-11T06:10:33.200Z,3.78
2022-08-11T06:12:37.397Z,4.25
2022-08-11T06:14:43.584Z,3.63
2022-08-11T06:16:47.893Z,3.78
2022-08-11T06:18:49.692Z,4.00
2022-08-11T06:22:58.692Z,4.05
2022-08-11T06:25:01.043Z,3.90
2022-08-11T06:27:18.885Z,4.00
2022-08-11T06:29:22.134Z,3.38
2022-08-11T06:31:39.866Z,3.45
2022-08-11T06:33:50.547Z,3.50
2022-08-11T06:36:15.708Z,3.33
2022-08-11T06:38:20.591Z,4.30
2022-08-11T06:40:35.854Z,3.55
2022-08-11T06:42:46.664Z,3.42
2022-08-11T06:45:01.319Z,3.72
2022-08-11T06:47:08.783Z,3.63
2022-08-11T06:49:30.554Z,3.83
2022-08-11T06:51:34.764Z,3.63
2022-08-11T06:54:03.082Z,3.90
2022-08-11T06:56:26.307Z,3.65
2022-08-11T06:58:53.907Z,3.55
2022-08-11T07:00:56.842Z,3.60
2022-08-11T07:03:03.273Z,2.90
2022-08-11T07:05:04.867Z,3.25
2022-08-11T07:07:33.422Z,3.58
2022-08-11T07:10:14.151Z,2.90
2022-08-11T07:12:53.527Z,2.60
2022-08-11T07:15:15.055Z,2.90
2022-08-11T07:17:19.513Z,2.55
2022-08-11T07:19:43.132Z,3.08
2022-08-11T07:22:04.467Z,2.65
2022-08-11T07:24:34.365Z,2.50
2022-08-11T07:27:12.625Z,2.42
2022-08-11T07:31:26.857Z,3.08
2022-08-11T07:34:08.200Z,2.65
2022-08-11T07:35:57.028Z,2.42
2022-08-11T07:38:01.639Z,2.58
2022-08-11T07:40:04.994Z,2.40
2022-08-11T07:44:09.269Z,2.42
2022-08-11T07:46:30.339Z,2.30
2022-08-11T07:48:52.220Z,2.03
2022-08-11T07:51:13.490Z,2.20
2022-08-11T07:53:15.781Z,1.98
2022-08-11T07:55:17.796Z,2.15
2022-08-11T07:58:13.833Z,2.75
2022-08-11T08:00:20.911Z,2.22
2022-08-11T08:02:41.127Z,2.20
2022-08-11T08:05:01.495Z,2.22
2022-08-11T08:07:23.404Z,2.40
2022-08-11T08:09:44.370Z,2.20
2022-08-11T08:12:05.402Z,2.13
2022-08-11T08:14:27.072Z,2.38
2022-08-11T08:16:48.254Z,2.17
2022-08-11T08:18:49.875Z,2.70
2022-08-11T08:20:52.053Z,2.33
2022-08-11T08:22:57.055Z,2.58
2022-08-11T08:24:59.407Z,2.30
2022-08-11T08:29:24.101Z,2.60
2022-08-11T08:31:25.858Z,2.88
2022-08-11T08:33:29.117Z,2.65
2022-08-11T08:35:33.021Z,2.90
2022-08-11T08:37:46.859Z,2.60
2022-08-11T08:39:49.602Z,2.80
2022-08-11T08:41:55.961Z,2.63
2022-08-11T08:44:34.668Z,2.20
2022-08-11T08:46:28.003Z,2.05
2022-08-11T08:48:30.973Z,2.20
2022-08-11T08:50:53.835Z,2.35
2022-08-11T08:53:00.988Z,2.70
2022-08-11T08:55:04.317Z,2.03
2022-08-11T08:57:06.682Z,2.72
2022-08-11T09:01:11.232Z,2.63
2022-08-11T09:03:38.976Z,2.42
2022-08-11T09:05:35.936Z,2.63
2022-08-11T09:07:39.601Z,2.20
2022-08-11T09:09:47.430Z,2.17
2022-08-11T09:11:56.040Z,2.03
2022-08-11T09:14:05.128Z,2.03
2022-08-11T09:16:09.690Z,2.15
2022-08-11T09:18:12.168Z,2.25
2022-08-11T09:20:13.775Z,1.90
2022-08-11T09:22:38.122Z,2.03
2022-08-11T09:24:59.414Z,1.70
2022-08-11T09:27:04.688Z,2.00
2022-08-11T09:29:08.220Z,1.52
2022-08-11T09:31:11.880Z,1.52
2022-08-11T09:33:14.298Z,1.80
2022-08-11T09:35:17.805Z,1.30
2022-08-11T09:37:54.923Z,1.50
2022-08-11T09:40:16.877Z,1.27
2022-08-11T09:42:23.161Z,1.58
2022-08-11T09:44:45.254Z,1.27
2022-08-11T09:46:47.082Z,1.73
2022-08-11T09:48:48.835Z,1.60
2022-08-11T09:50:51.898Z,1.10
2022-08-11T09:53:34.648Z,1.10
2022-08-11T09:55:16.325Z,1.30
2022-08-11T09:57:37.748Z,1.55
2022-08-11T09:59:40.811Z,1.27
2022-08-11T10:01:48.167Z,1.10
2022-08-11T10:03:50.281Z,1.50
2022-08-11T10:06:33.235Z,1.77
2022-08-11T10:08:37.967Z,1.20
2022-08-11T10:10:40.374Z,1.98
2022-08-11T10:12:46.309Z,1.30
2022-08-11T10:15:09.600Z,1.58
2022-08-11T10:17:13.539Z,1.40
2022-08-11T10:19:19.058Z,1.58
2022-08-11T10:21:34.842Z,1.30
2022-08-11T10:24:00.974Z,1.20
2022-08-11T10:26:26.801Z,1.35
2022-08-11T10:28:50.049Z,1.52
2022-08-11T10:31:16.501Z,1.10
2022-08-11T10:33:45.737Z,1.42
2022-08-11T10:36:00.178Z,1.55
2022-08-11T10:38:06.407Z,1.60
2022-08-11T10:40:15.678Z,1.40
2022-08-11T10:42:57.390Z,1.52
2022-08-11T10:44:59.179Z,1.58
2022-08-11T10:47:20.200Z,1.48
2022-08-11T10:49:22.952Z,1.27
2022-08-11T10:51:51.456Z,1.30
2022-08-11T10:54:14.061Z,1.58
2022-08-11T10:56:35.941Z,1.83
2022-08-11T10:58:50.418Z,1.27
2022-08-11T11:00:56.741Z,1.60
2022-08-11T11:03:07.178Z,1.33
2022-08-11T11:05:23.712Z,1.30
2022-08-11T11:07:45.526Z,1.45
2022-08-11T11:09:50.593Z,1.58
2022-08-11T11:12:16.093Z,1.75
2022-08-11T11:14:46.374Z,1.55
2022-08-11T11:16:51.096Z,1.60
2022-08-11T11:19:00.526Z,1.60
2022-08-11T11:21:05.895Z,1.80
2022-08-11T11:23:10.357Z,1.58
2022-08-11T11:25:22.660Z,1.90
2022-08-11T11:27:32.308Z,2.15
2022-08-11T11:29:34.072Z,1.50
2022-08-11T11:31:35.611Z,1.80
2022-08-11T11:34:06.611Z,1.38
2022-08-11T11:36:39.802Z,1.80
2022-08-11T11:38:41.828Z,1.60
2022-08-11T11:40:43.767Z,1.50
2022-08-11T11:42:46.175Z,1.30
2022-08-11T11:44:48.098Z,1.63
2022-08-11T11:46:50.435Z,1.15
2022-08-11T11:48:53.075Z,1.40
2022-08-11T11:50:58.495Z,1.45
2022-08-11T11:53:01.433Z,1.33
2022-08-11T11:55:03.984Z,1.52
2022-08-11T11:57:24.250Z,1.33
2022-08-11T11:59:45.527Z,1.30
2022-08-11T12:01:50.203Z,1.55
2022-08-11T12:03:55.484Z,1.73
2022-08-11T12:08:17.408Z,1.48
2022-08-11T12:10:19.191Z,1.42
2022-08-11T12:12:41.480Z,1.33
2022-08-11T12:14:43.447Z,1.90
2022-08-11T12:16:45.581Z,1.40
2022-08-11T12:18:51.889Z,1.38
2022-08-11T12:20:55.456Z,1.27
2022-08-11T12:23:16.204Z,1.30
2022-08-11T12:25:37.047Z,1.48
2022-08-11T12:27:40.626Z,1.30
2022-08-11T12:29:44.308Z,1.42
2022-08-11T12:31:46.132Z,1.50
2022-08-11T12:33:48.111Z,1.63
2022-08-11T12:36:00.943Z,1.70
2022-08-11T12:38:10.816Z,1.48
2022-08-11T12:40:49.669Z,1.50
2022-08-11T12:43:21.707Z,1.60
2022-08-11T12:45:29.234Z,1.60
2022-08-11T12:48:57.608Z,1.88
2022-08-11T12:50:33.155Z,1.50
2022-08-11T12:52:36.843Z,1.60
2022-08-11T12:54:44.267Z,1.10
2022-08-11T12:57:06.619Z,0.93
2022-08-11T12:59:27.713Z,1.42
2022-08-11T13:01:48.084Z,1.30
2022-08-11T13:04:08.494Z,1.20
2022-08-11T13:06:11.104Z,1.20
2022-08-11T13:08:16.463Z,1.27
2022-08-11T13:10:37.560Z,1.25
2022-08-11T13:12:49.439Z,1.20
2022-08-11T13:14:51.430Z,1.30
2022-08-11T13:17:11.781Z,1.40
2022-08-11T13:19:13.665Z,0.90
2022-08-11T13:21:20.454Z,1.15
2022-08-11T13:23:23.571Z,1.60
2022-08-11T13:25:26.943Z,1.30
2022-08-11T13:27:28.631Z,1.25
2022-08-11T13:29:30.814Z,1.23
2022-08-11T13:31:33.395Z,1.20
2022-08-11T13:33:45.840Z,1.20
2022-08-11T13:35:52.590Z,1.30
2022-08-11T13:38:18.818Z,1.40
2022-08-11T13:40:20.396Z,1.33
2022-08-11T13:42:22.118Z,2.05
2022-08-11T13:44:27.079Z,1.87
2022-08-11T13:46:28.850Z,2.10
2022-08-11T13:48:31.098Z,1.23
2022-08-11T13:50:52.937Z,1.23
2022-08-11T13:52:54.564Z,1.40
2022-08-11T13:54:56.968Z,1.40
2022-08-11T13:57:08.250Z,1.48
2022-08-11T13:59:13.091Z,1.40
2022-08-11T14:01:35.287Z,1.25
2022-08-11T14:04:30.441Z,1.30
2022-08-11T14:06:03.565Z,1.20
2022-08-11T14:08:09.580Z,1.30
2022-08-11T14:10:33.202Z,1.55
2022-08-11T14:12:56.347Z,1.40
2022-08-11T14:15:08.143Z,1.33
2022-08-11T14:17:11.263Z,1.50
2022-08-11T14:19:35.642Z,2.23
2022-08-11T14:22:02.536Z,1.50
2022-08-11T14:24:11.676Z,1.90
2022-08-11T14:26:34.229Z,1.60
2022-08-11T14:28:44.439Z,1.50
2022-08-11T14:31:01.548Z,1.80
2022-08-11T14:33:16.532Z,1.58
2022-08-11T14:35:19.057Z,1.30
2022-08-11T14:37:22.293Z,1.38
2022-08-11T14:39:25.433Z,1.45
2022-08-11T14:42:12.666Z,1.50
2022-08-11T14:44:27.539Z,1.80
2022-08-11T14:46:48.728Z,1.58
2022-08-11T14:48:50.523Z,1.90
2022-08-11T14:50:53.520Z,1.95
2022-08-11T14:52:56.849Z,3.60
2022-08-11T14:55:17.245Z,1.70
2022-08-11T14:57:20.086Z,1.80
2022-08-11T14:59:53.438Z,1.90
2022-08-11T15:02:16.797Z,1.30
2022-08-11T15:04:36.068Z,1.52
2022-08-11T15:06:38.439Z,1.65
2022-08-11T15:08:56.477Z,1.70
2022-08-11T15:10:58.896Z,1.63
2022-08-11T15:13:03.244Z,1.65
2022-08-11T15:15:26.396Z,1.45
2022-08-11T15:17:43.578Z,1.65
2022-08-11T15:20:07.308Z,1.95
2022-08-11T15:22:28.957Z,1.60
2022-08-11T15:24:31.272Z,1.90
2022-08-11T15:26:59.173Z,1.67
2022-08-11T15:29:23.419Z,1.92
2022-08-11T15:31:27.744Z,1.73
2022-08-11T15:33:48.756Z,1.58
2022-08-11T15:36:09.509Z,1.80
2022-08-11T15:38:12.527Z,1.67
2022-08-11T15:42:59.083Z,2.17
2022-08-11T15:45:21.625Z,1.95
2022-08-11T15:47:25.750Z,2.05
2022-08-11T15:50:12.396Z,2.17
2022-08-11T15:51:56.011Z,1.60
2022-08-11T15:53:58.775Z,2.00
2022-08-11T15:58:22.064Z,1.58
2022-08-11T16:00:42.900Z,1.95
2022-08-11T16:02:57.160Z,2.05
2022-08-11T16:05:02.003Z,2.22
2022-08-11T16:07:05.822Z,1.92
2022-08-11T16:09:09.555Z,2.00
2022-08-11T16:11:21.396Z,2.17
2022-08-11T16:13:23.423Z,1.70
2022-08-11T16:15:43.887Z,1.90
2022-08-11T16:17:46.998Z,1.83
2022-08-11T16:19:49.886Z,2.00
2022-08-11T16:21:52.162Z,1.98
2022-08-11T16:23:55.891Z,2.00
2022-08-11T16:27:07.586Z,1.80
2022-08-11T16:28:20.916Z,2.03
2022-08-11T16:30:23.011Z,1.95
2022-08-11T16:32:25.725Z,1.98
2022-08-11T16:34:46.335Z,1.92
2022-08-11T16:37:06.700Z,2.50
2022-08-11T16:39:09.014Z,2.10
2022-08-11T16:41:13.169Z,2.03
2022-08-11T16:43:35.351Z,2.03
2022-08-11T16:45:56.661Z,2.45
2022-08-11T16:48:03.231Z,2.30
2022-08-11T16:50:21.030Z,1.98
2022-08-11T16:52:23.547Z,2.33
2022-08-11T16:54:25.154Z,2.10
2022-08-11T16:56:44.019Z,2.20
2022-08-11T16:59:08.860Z,2.20
2022-08-11T17:01:11.935Z,2.28
2022-08-11T17:03:32.791Z,2.00
2022-08-11T17:05:54.247Z,2.50
2022-08-11T17:08:16.776Z,2.30
2022-08-11T17:10:53.229Z,2.47
2022-08-11T17:13:09.438Z,2.60
2022-08-11T17:15:33.508Z,2.22
2022-08-11T17:17:37.156Z,2.28
2022-08-11T17:20:39.428Z,2.40
2022-08-11T17:22:22.247Z,2.20
2022-08-11T17:24:27.673Z,2.28
2022-08-11T17:26:51.728Z,2.00
2022-08-11T17:28:57.797Z,2.33
2022-08-11T17:31:22.291Z,2.35
2022-08-11T17:33:43.200Z,2.33
2022-08-11T17:35:44.999Z,2.45
2022-08-11T17:37:48.199Z,2.40
2022-08-11T17:39:50.742Z,2.20
2022-08-11T17:42:11.544Z,2.20
2022-08-11T17:44:32.743Z,2.40
2022-08-11T17:46:53.904Z,2.13
2022-08-11T17:48:55.819Z,2.50
2022-08-11T17:51:00.415Z,2.30
2022-08-11T17:53:21.180Z,2.88
2022-08-11T17:55:52.623Z,3.00
2022-08-11T17:58:14.427Z,3.38
2022-08-11T18:00:16.855Z,3.03
2022-08-11T18:02:39.936Z,3.28
2022-08-11T18:04:42.019Z,3.72
2022-08-11T18:06:44.147Z,3.58
2022-08-11T18:09:05.650Z,3.53
2022-08-11T18:12:09.816Z,3.30
2022-08-11T18:14:08.695Z,3.00
2022-08-11T18:16:29.445Z,3.60
2022-08-11T18:18:49.742Z,2.92
2022-08-11T18:21:10.012Z,3.38
2022-08-11T18:23:40.607Z,5.72
2022-08-11T18:26:08.024Z,5.80
2022-08-11T18:28:29.877Z,3.75
2022-08-11T18:31:03.957Z,3.67
2022-08-11T18:33:50.484Z,3.85
2022-08-11T18:36:11.799Z,4.10
2022-08-11T18:38:34.998Z,3.72
2022-08-11T18:40:56.483Z,4.15
2022-08-11T18:43:20.350Z,4.20
2022-08-11T18:45:45.757Z,3.90
2022-08-11T18:48:11.651Z,4.50
2022-08-11T18:50:38.689Z,4.22
2022-08-11T18:53:01.606Z,3.58
2022-08-11T18:55:22.945Z,3.88
2022-08-11T18:57:49.356Z,6.22
2022-08-11T19:00:16.332Z,3.22
2022-08-11T19:02:48.712Z,4.10
2022-08-11T19:07:31.195Z,3.33
2022-08-11T19:09:53.996Z,3.70
2022-08-11T19:14:35.887Z,3.67
2022-08-11T19:16:56.664Z,3.47
2022-08-11T19:19:17.363Z,3.60
2022-08-11T19:21:38.084Z,4.00
2022-08-11T19:24:01.412Z,3.97
2022-08-11T19:28:42.659Z,3.72
2022-08-11T19:31:03.056Z,3.35
2022-08-11T19:34:00.067Z,4.05
2022-08-11T19:36:05.008Z,4.05
2022-08-11T19:38:26.859Z,3.83
2022-08-11T19:40:47.685Z,3.58
2022-08-11T19:43:14.883Z,4.97
2022-08-11T19:45:45.835Z,6.63
2022-08-11T19:48:31.384Z,3.75
2022-08-11T19:50:52.674Z,3.97
2022-08-11T19:53:17.337Z,3.75
2022-08-11T19:55:38.374Z,3.55
2022-08-11T19:58:01.215Z,4.03
2022-08-11T20:00:23.842Z,3.72
2022-08-11T20:02:44.231Z,3.40
2022-08-11T20:05:04.515Z,3.88
2022-08-11T20:07:25.772Z,3.78
2022-08-11T20:10:06.133Z,3.90
2022-08-11T20:12:27.061Z,5.68
2022-08-11T20:14:49.435Z,13.57
2022-08-11T20:17:10.824Z,3.80
2022-08-11T20:19:56.154Z,4.68
2022-08-11T20:22:14.469Z,17.10
2022-08-11T20:24:36.237Z,18.33
2022-08-11T20:26:56.581Z,7.57
2022-08-11T20:29:17.343Z,5.43
2022-08-11T20:31:39.688Z,4.85
2022-08-11T20:36:21.610Z,4.32
2022-08-11T20:38:42.864Z,4.30
2022-08-11T20:41:04.085Z,5.10
2022-08-11T20:44:06.738Z,7.43
2022-08-11T20:46:08.159Z,5.22
2022-08-11T20:48:29.184Z,5.15
2022-08-11T20:50:50.601Z,4.18
2022-08-11T20:53:13.575Z,3.88
2022-08-11T20:55:51.810Z,6.47
2022-08-11T20:58:17.759Z,6.75
2022-08-11T21:00:39.129Z,6.32
2022-08-11T21:03:01.207Z,4.65
2022-08-11T21:06:09.938Z,6.30
2022-08-11T21:08:04.685Z,5.10
2022-08-11T21:10:27.195Z,5.07
2022-08-11T21:12:50.820Z,4.40
2022-08-11T21:15:38.621Z,4.63
2022-08-11T21:18:00.839Z,4.72
2022-08-11T21:20:28.807Z,4.63
2022-08-11T21:22:59.328Z,6.00
2022-08-11T21:25:27.355Z,5.05
2022-08-11T21:27:48.355Z,4.43
2022-08-11T21:30:08.723Z,4.50
2022-08-11T21:32:30.125Z,4.80
2022-08-11T21:34:50.955Z,4.35
2022-08-11T21:37:11.313Z,4.47
2022-08-11T21:39:35.076Z,4.68
2022-08-11T21:41:56.557Z,4.65
2022-08-11T21:44:17.239Z,4.00
2022-08-11T21:46:39.390Z,4.10
2022-08-11T21:49:00.649Z,4.10
2022-08-11T21:51:20.889Z,4.00
2022-08-11T21:53:41.377Z,3.90
2022-08-11T21:56:02.548Z,4.10
2022-08-11T21:58:22.879Z,4.15
2022-08-11T22:00:43.564Z,3.55
2022-08-11T22:03:05.344Z,3.88
2022-08-11T22:05:26.099Z,3.90
2022-08-11T22:07:46.922Z,3.67
2022-08-11T22:10:34.242Z,3.67
2022-08-11T22:12:48.695Z,3.50
2022-08-11T22:15:09.221Z,3.30
2022-08-11T22:17:29.597Z,3.83
2022-08-11T22:19:50.213Z,3.75
2022-08-11T22:22:10.560Z,3.95
2022-08-11T22:24:31.869Z,3.92
2022-08-11T22:26:53.243Z,4.20
2022-08-11T22:29:13.666Z,3.80
2022-08-11T22:31:35.171Z,3.75
2022-08-11T22:34:02.135Z,3.40
2022-08-11T22:36:22.731Z,4.13
2022-08-11T22:38:44.626Z,3.72
2022-08-11T22:41:05.250Z,4.57
2022-08-11T22:43:26.063Z,3.88
2022-08-11T22:45:46.497Z,4.20
2022-08-11T22:48:08.008Z,4.18
2022-08-11T22:50:28.253Z,4.57
2022-08-11T22:52:49.415Z,4.53
2022-08-11T22:55:11.188Z,4.18
2022-08-11T22:57:32.953Z,4.20
2022-08-11T22:59:54.263Z,4.50
2022-08-11T23:02:14.501Z,4.60
2022-08-11T23:04:35.900Z,4.18
2022-08-11T23:06:56.800Z,4.55
2022-08-11T23:09:17.321Z,4.32
2022-08-11T23:12:06.128Z,4.60
2022-08-11T23:14:18.647Z,4.55
2022-08-11T23:16:39.666Z,5.55
2022-08-11T23:18:59.993Z,4.90
2022-08-11T23:21:20.819Z,4.85
2022-08-11T23:23:42.092Z,4.60
2022-08-11T23:26:04.538Z,4.82
2022-08-11T23:28:26.230Z,4.63
2022-08-11T23:30:46.660Z,4.80
2022-08-11T23:33:08.071Z,4.38
2022-08-11T23:35:37.829Z,5.03
2022-08-11T23:38:01.106Z,4.57
2022-08-11T23:40:21.548Z,4.35
2022-08-11T23:42:44.072Z,4.97
2022-08-11T23:45:09.684Z,4.95
2022-08-11T23:47:30.377Z,4.97
2022-08-11T23:49:51.767Z,4.28
2022-08-11T23:52:12.392Z,4.97
2022-08-11T23:54:37.338Z,4.47
2022-08-11T23:56:58.499Z,4.72
2022-08-11T23:59:18.873Z,4.70
